KTXK/TXK METAR and TAF weather

Enter ICAO airport designator
Station Type Date Time Source
KTXK METAR 2019/08/22 19:55 UTC NOAA

KTXK 221955Z 22008KT 10SM FEW055 SCT070 35/19 A2991 RMK AO2 T03500189


Station Type Date Time Source
KTXK Decoded METAR 2019/08/22 19:55 UTC NOAA

Station name not available
Aug 22, 2019 - 03:55 PM EDT / 2019.08.22 1955 UTC
Wind: from the SW (220 degrees) at 9 MPH (8 KT):0
Visibility: 10 mile(s):0
Sky conditions: partly cloudy
Temperature: 95.0 F (35.0 C)
Heat index: 97.9 F (36.6 C):1
Dew Point: 66.0 F (18.9 C)
Relative Humidity: 38%
Pressure (altimeter): 29.91 in. Hg (1012 hPa)
ob: KTXK 221955Z 22008KT 10SM FEW055 SCT070 35/19 A2991 RMK AO2 T03500189
cycle: 20

Station Type Date Time Source
KTXK TAF 2019/08/22 18:48 UTC NOAA

TAF KTXK 221746Z 2218/2318 22007KT P6SM SCT040
FM230100 17004KT P6SM SKC
FM231500 19004KT P6SM SCT030

Example: see airport list